Time;durP1;ratioP1;P1;durP2;ratioP2;P2;SDS_P1;SDS_P2;PMS_P1;PMS_P2;Temp;Humidity;BMP_temperature;BMP_pressure;BME280_temperature;BME280_humidity;BME280_pressure;Samples;Min_cycle;Max_cycle;Signal;HPM_P1;HPM_P2
2022/01/09 00:02:23;;;;;;;2.60;1.15;;;;;;;5.68;100.00;98320.38;5034664;28;20171;-74
2022/01/09 00:05:07;;;;;;;;;;;;;;;5.75;100.00;98308.13;5034743;28;20048;-74
2022/01/09 00:07:53;;;;;;;1.17;0.65;;;;;;;5.73;100.00;98315.41;5019558;28;19920;-73
2022/01/09 00:10:37;;;;;;;0.90;0.80;;;;;;;5.76;100.00;98309.78;5019606;28;20044;-74
2022/01/09 00:13:21;;;;;;;0.70;0.70;;;;;;;5.74;100.00;98297.75;5005590;28;20393;-74
2022/01/09 00:16:05;;;;;;;;;;;;;;;5.74;100.00;98293.28;5020158;28;20064;-73
2022/01/09 00:18:49;;;;;;;0.80;0.80;;;;;;;5.76;100.00;98288.66;5019400;28;19919;-74
2022/01/09 00:21:34;;;;;;;2.95;0.88;;;;;;;5.78;100.00;98284.03;5018520;28;20304;-73
2022/01/09 00:24:18;;;;;;;1.33;0.90;;;;;;;5.76;100.00;98280.72;5019920;28;20571;-73
2022/01/09 00:27:01;;;;;;;0.73;0.73;;;;;;;5.80;100.00;98275.97;5019243;28;20048;-73
2022/01/09 00:29:45;;;;;;;3.38;0.80;;;;;;;5.79;100.00;98263.75;5018913;28;20111;-73
2022/01/09 00:32:29;;;;;;;;;;;;;;;5.79;100.00;98259.28;5019763;28;20500;-73
2022/01/09 00:35:13;;;;;;;0.60;0.60;;;;;;;5.82;100.00;98242.25;5019414;28;19924;-74
2022/01/09 00:37:57;;;;;;;1.40;0.75;;;;;;;5.83;100.00;98254.50;5019312;28;20110;-74
2022/01/09 00:40:41;;;;;;;2.08;0.80;;;;;;;5.86;100.00;98241.75;5018512;28;20088;-73
2022/01/09 00:43:25;;;;;;;0.70;0.70;;;;;;;5.86;100.00;98236.47;5019056;28;20080;-73
2022/01/09 00:46:09;;;;;;;1.20;0.80;;;;;;;5.86;100.00;98228.53;5018919;28;20044;-74
2022/01/09 00:48:53;;;;;;;1.60;0.70;;;;;;;5.90;100.00;98216.66;5033704;28;20060;-73
2022/01/09 00:51:37;;;;;;;1.75;0.85;;;;;;;5.96;100.00;98207.25;5018496;28;20106;-73
2022/01/09 00:54:22;;;;;;;1.65;0.70;;;;;;;5.90;100.00;98202.63;5018801;28;20132;-73
2022/01/09 00:57:06;;;;;;;1.00;0.80;;;;;;;5.94;100.00;98194.19;5018859;28;20049;-74
2022/01/09 00:59:50;;;;;;;;;;;;;;;5.96;100.00;98210.72;5018876;28;20044;-74
2022/01/09 01:02:34;;;;;;;0.80;0.80;;;;;;;5.94;100.00;98217.97;5018307;28;20008;-73
2022/01/09 01:05:19;;;;;;;0.73;0.60;;;;;;;5.97;100.00;98209.72;5018451;28;20048;-73
2022/01/09 01:08:03;;;;;;;1.42;0.80;;;;;;;6.00;100.00;98204.13;5033370;28;20052;-73
2022/01/09 01:10:47;;;;;;;1.65;0.70;;;;;;;6.01;100.00;98204.94;5018485;28;20524;-73
2022/01/09 01:13:31;;;;;;;1.42;0.80;;;;;;;6.01;100.00;98210.22;5018239;28;20550;-74
2022/01/09 01:16:15;;;;;;;0.77;0.77;;;;;;;5.97;100.00;98209.72;5018436;28;20068;-73
2022/01/09 01:19:00;;;;;;;0.98;0.90;;;;;;;5.97;100.00;98217.66;5004369;28;20083;-73
2022/01/09 01:21:44;;;;;;;4.50;0.98;;;;;;;5.97;100.00;98206.25;5018507;28;20103;-73
2022/01/09 01:24:28;;;;;;;0.63;0.63;;;;;;;6.00;100.00;98212.06;5018123;28;20048;-73
2022/01/09 01:27:12;;;;;;;;;;;;;;;5.99;100.00;98234.19;5018675;28;20076;-74
2022/01/09 01:29:56;;;;;;;1.00;0.80;;;;;;;6.04;100.00;98226.59;5004234;28;19919;-73
2022/01/09 01:32:41;;;;;;;2.15;0.80;;;;;;;6.03;100.00;98217.00;5017704;28;20316;-73
2022/01/09 01:35:25;;;;;;;1.80;0.88;;;;;;;5.99;100.00;98228.06;5017709;28;20520;-72
2022/01/09 01:38:09;;;;;;;;;;;;;;;6.05;100.00;98236.16;5033521;28;20207;-74
2022/01/09 01:40:53;;;;;;;1.00;0.80;;;;;;;6.02;100.00;98238.31;5032568;28;19924;-74
2022/01/09 01:43:37;;;;;;;;;;;;;;;6.03;100.00;98245.25;5018191;28;20270;-74
2022/01/09 01:46:21;;;;;;;0.85;0.85;;;;;;;6.01;100.00;98241.94;5033006;28;19970;-73
2022/01/09 01:49:05;;;;;;;;;;;;;;;6.00;100.00;98238.50;5018382;28;20047;-73
2022/01/09 01:51:49;;;;;;;0.90;0.70;;;;;;;6.04;100.00;98253.03;5017604;28;19959;-73
2022/01/09 01:54:33;;;;;;;;;;;;;;;6.00;100.00;98246.44;5018363;28;20052;-73
2022/01/09 01:57:18;;;;;;;2.38;0.95;;;;;;;5.99;100.00;98249.22;5017605;28;20388;-73
2022/01/09 02:00:04;;;;;;;2.13;1.25;;;;;;;6.01;100.00;98249.88;5017524;28;20041;-74
2022/01/09 02:02:48;;;;;;;1.38;0.90;;;;;;;6.03;100.00;98255.81;5003749;28;20111;-73
2022/01/09 02:05:32;;;;;;;;;;;;;;;5.99;100.00;98260.66;5033050;28;20136;-73
2022/01/09 02:08:16;;;;;;;3.22;1.30;;;;;;;5.98;100.00;98264.28;5032494;28;20331;-74
2022/01/09 02:11:00;;;;;;;3.42;1.30;;;;;;;6.04;100.00;98273.38;5003992;28;20413;-74
2022/01/09 02:13:46;;;;;;;2.90;1.40;;;;;;;5.99;100.00;98270.38;5017572;28;20496;-73
2022/01/09 02:16:30;;;;;;;2.35;1.10;;;;;;;6.02;100.00;98280.63;5017757;28;20056;-73
2022/01/09 02:19:15;;;;;;;2.70;1.10;;;;;;;5.98;100.00;98293.38;5003463;28;20061;-73
2022/01/09 02:21:59;;;;;;;2.13;1.48;;;;;;;6.00;100.00;98299.31;5003839;28;20115;-73
2022/01/09 02:24:44;;;;;;;1.88;1.25;;;;;;;6.00;100.00;98309.91;5017808;28;20060;-73
2022/01/09 02:27:27;;;;;;;2.13;1.30;;;;;;;6.01;100.00;98300.97;5004386;28;20052;-73
2022/01/09 02:30:11;;;;;;;;;;;;;;;5.98;100.00;98295.19;5025419;28;20052;-73
2022/01/09 02:32:55;;;;;;;3.07;1.10;;;;;;;5.95;100.00;98306.91;5003949;28;19971;-73
2022/01/09 02:35:39;;;;;;;2.40;1.23;;;;;;;5.99;100.00;98313.53;5032484;28;20052;-73
2022/01/09 02:38:23;;;;;;;2.65;1.42;;;;;;;5.98;100.00;98322.47;5017493;28;20106;-72
2022/01/09 02:41:07;;;;;;;;;;;;;;;5.98;100.00;98332.19;5032465;28;20049;-73
2022/01/09 02:43:51;;;;;;;2.97;1.15;;;;;;;5.95;100.00;98328.06;5017694;28;19928;-73
2022/01/09 02:46:51;;;;;;;;;;;;;;;5.97;100.00;98347.22;5021548;28;20103;-73
2022/01/09 02:49:35;;;;;;;1.80;1.20;;;;;;;5.97;100.00;98336.66;5021017;28;19920;-72
2022/01/09 02:52:33;;;;;;;;;;;;;;;5.98;100.00;98353.34;5007557;28;20053;-73
2022/01/09 02:55:18;;;;;;;1.40;1.10;;;;;;;6.00;100.00;98352.22;5021054;28;19960;-73
2022/01/09 02:58:02;;;;;;;3.42;1.20;;;;;;;5.97;100.00;98367.56;5035908;28;20103;-72
2022/01/09 03:00:46;;;;;;;;;;;;;;;6.00;100.00;98361.94;5036099;28;20088;-73
2022/01/09 03:03:30;;;;;;;1.52;1.10;;;;;;;5.93;100.00;98372.34;5020690;28;19932;-73
2022/01/09 03:06:14;;;;;;;;;;;;;;;5.92;100.00;98383.06;5020953;28;20486;-73
2022/01/09 03:09:01;;;;;;;0.90;0.83;;;;;;;5.92;100.00;98391.84;5020804;28;20293;-73
2022/01/09 03:11:47;;;;;;;1.77;1.00;;;;;;;5.90;100.00;98388.53;5020888;28;20320;-71
2022/01/09 03:14:31;;;;;;;1.42;1.00;;;;;;;5.93;100.00;98409.38;5035424;28;20055;-73
2022/01/09 03:17:16;;;;;;;4.65;1.15;;;;;;;5.91;100.00;98413.16;5020827;28;20055;-73
2022/01/09 03:20:00;;;;;;;2.70;1.17;;;;;;;5.87;100.00;98425.88;5020243;28;20044;-73
2022/01/09 03:22:44;;;;;;;1.88;1.00;;;;;;;5.87;100.00;98425.06;5020274;28;20060;-73
2022/01/09 03:25:28;;;;;;;1.38;1.02;;;;;;;5.83;100.00;98429.00;5035526;28;20497;-73
2022/01/09 03:28:12;;;;;;;1.40;1.05;;;;;;;5.76;100.00;98449.09;5020417;28;20052;-73
2022/01/09 03:30:56;;;;;;;1.55;0.95;;;;;;;5.76;100.00;98447.25;5020047;28;20052;-73
2022/01/09 03:33:40;;;;;;;1.30;1.10;;;;;;;5.76;100.00;98463.13;5020604;28;20052;-73
2022/01/09 03:36:24;;;;;;;;;;;;;;;5.74;100.00;98462.47;5020570;28;20052;-73
2022/01/09 03:39:08;;;;;;;1.65;1.00;;;;;;;5.66;100.00;98465.06;5034914;28;19919;-73
2022/01/09 03:41:54;;;;;;;3.15;1.00;;;;;;;5.61;100.00;98472.63;5019763;28;20056;-73
2022/01/09 03:44:38;;;;;;;1.63;0.98;;;;;;;5.62;100.00;98484.88;5006808;28;20053;-73
2022/01/09 03:47:22;;;;;;;0.80;0.80;;;;;;;5.59;100.00;98492.28;5034873;28;20052;-73
2022/01/09 03:50:07;;;;;;;;;;;;;;;5.56;100.00;98485.47;5020367;28;20099;-73
2022/01/09 03:52:51;;;;;;;0.93;0.82;;;;;;;5.60;100.00;98492.13;5019756;28;20280;-74
2022/01/09 03:55:35;;;;;;;2.55;1.00;;;;;;;5.54;100.00;98518.34;5019758;28;20048;-73
2022/01/09 03:58:19;;;;;;;;;;;;;;;5.51;100.00;98519.47;5019951;28;20107;-73
2022/01/09 04:01:06;;;;;;;1.42;1.00;;;;;;;5.52;100.00;98529.06;5034525;28;19986;-73
2022/01/09 04:03:51;;;;;;;1.90;0.98;;;;;;;5.47;100.00;98534.00;5019982;28;20114;-73
2022/01/09 04:06:35;;;;;;;3.63;0.85;;;;;;;5.58;100.00;98546.97;5019811;28;20052;-73
2022/01/09 04:09:26;;;;;;;1.13;0.80;;;;;;;5.50;100.00;98569.84;5034365;28;20053;-73
2022/01/09 04:12:30;;;;;;;3.70;0.70;;;;;;;5.51;100.00;98572.34;5020790;28;20425;-74
2022/01/09 04:15:15;;;;;;;2.07;0.70;;;;;;;5.44;100.00;98581.84;5021950;28;20103;-74
2022/01/09 04:18:00;;;;;;;3.85;0.70;;;;;;;5.36;100.00;98595.00;5019580;28;20044;-73
2022/01/09 04:20:44;;;;;;;0.60;0.52;;;;;;;5.26;100.00;98615.41;5034105;28;20408;-73
2022/01/09 04:23:29;;;;;;;1.02;0.65;;;;;;;5.25;100.00;98620.81;5005759;28;20136;-73
2022/01/09 04:26:13;;;;;;;3.53;0.63;;;;;;;5.23;100.00;98636.81;5019315;28;20095;-73
2022/01/09 04:28:56;;;;;;;;;;;;;;;5.13;100.00;98641.34;5034817;28;20114;-73
2022/01/09 04:31:40;;;;;;;0.82;0.63;;;;;;;5.01;100.00;98647.81;5019135;28;20027;-73
2022/01/09 04:34:24;;;;;;;0.50;0.50;;;;;;;4.94;100.00;98664.41;5020317;28;20044;-73
2022/01/09 04:37:08;;;;;;;0.60;0.50;;;;;;;4.98;100.00;98669.25;5042987;28;20052;-73
2022/01/09 04:39:53;;;;;;;;;;;;;;;4.87;100.00;98696.81;5018929;28;20048;-74
2022/01/09 04:42:42;;;;;;;0.63;0.50;;;;;;;4.89;100.00;98694.88;5019118;28;19971;-73
2022/01/09 04:45:28;;;;;;;1.17;0.50;;;;;;;4.86;100.00;98689.88;5019860;28;20132;-72
2022/01/09 04:48:15;;;;;;;1.38;0.50;;;;;;;4.73;100.00;98702.56;5005254;28;20432;-73
2022/01/09 04:50:59;;;;;;;0.40;0.40;;;;;;;4.63;100.00;98720.25;5019095;28;20576;-73
2022/01/09 04:53:43;;;;;;;0.60;0.50;;;;;;;4.54;100.00;98727.22;5018608;28;20191;-72
2022/01/09 04:56:28;;;;;;;0.40;0.40;;;;;;;4.49;100.00;98731.28;5033937;28;20048;-73
2022/01/09 04:59:12;;;;;;;1.67;0.50;;;;;;;4.50;100.00;98738.22;5018533;28;20103;-73
2022/01/09 05:01:56;;;;;;;0.40;0.40;;;;;;;4.36;100.00;98743.97;5018357;28;20107;-73
2022/01/09 05:04:40;;;;;;;;;;;;;;;4.41;100.00;98753.09;5019055;28;20054;-73
2022/01/09 05:07:24;;;;;;;0.63;0.47;;;;;;;4.41;100.00;98761.03;5033456;28;20316;-73
2022/01/09 05:10:09;;;;;;;0.38;0.38;;;;;;;4.29;100.00;98769.22;5018656;28;20543;-73
2022/01/09 05:12:53;;;;;;;0.40;0.40;;;;;;;4.19;100.00;98774.53;5018203;28;20044;-73
2022/01/09 05:15:37;;;;;;;1.10;0.60;;;;;;;4.19;100.00;98779.81;5018404;28;20052;-73
2022/01/09 05:18:21;;;;;;;0.52;0.50;;;;;;;4.06;100.00;98789.78;5018328;28;20052;-73
2022/01/09 05:21:05;;;;;;;0.95;0.52;;;;;;;4.14;100.00;98792.56;5003972;28;20064;-73
2022/01/09 05:23:49;;;;;;;;;;;;;;;4.05;100.00;98800.47;5018388;28;20131;-72
2022/01/09 05:26:33;;;;;;;0.60;0.60;;;;;;;4.12;100.00;98806.84;5004449;28;19920;-73
2022/01/09 05:29:17;;;;;;;1.60;0.70;;;;;;;4.10;100.00;98811.44;5033137;28;20044;-73
2022/01/09 05:32:01;;;;;;;5.63;0.98;;;;;;;4.11;100.00;98826.28;5003936;28;20087;-72
2022/01/09 05:34:45;;;;;;;;;;;;;;;4.10;100.00;98821.97;5004680;28;20080;-73
2022/01/09 05:37:28;;;;;;;4.18;0.90;;;;;;;4.12;100.00;98825.31;5017939;28;19979;-73
2022/01/09 05:40:13;;;;;;;1.30;1.10;;;;;;;4.14;100.00;98839.19;5003930;28;20052;-73
2022/01/09 05:42:57;;;;;;;1.50;1.10;;;;;;;4.18;100.00;98841.41;5032813;28;20052;-73
2022/01/09 05:45:41;;;;;;;3.80;1.48;;;;;;;4.14;100.00;98844.44;5033001;28;20044;-73
2022/01/09 05:48:24;;;;;;;2.38;1.25;;;;;;;4.18;100.00;98853.78;5017975;28;20458;-72
2022/01/09 05:51:08;;;;;;;4.75;1.55;;;;;;;4.19;100.00;98858.91;5018043;28;20346;-72
2022/01/09 05:53:52;;;;;;;;;;;;;;;4.19;100.00;98858.91;5018222;28;20076;-72
2022/01/09 05:56:36;;;;;;;3.25;1.48;;;;;;;4.19;100.00;98868.63;5017558;28;19967;-72
2022/01/09 05:59:20;;;;;;;4.15;1.67;;;;;;;4.23;100.00;98875.28;5004116;28;20056;-73
2022/01/09 06:02:04;;;;;;;4.53;1.90;;;;;;;4.20;100.00;98883.47;5017660;28;20053;-72
2022/01/09 06:04:48;;;;;;;;;;;;;;;4.23;100.00;98896.38;5033054;28;20087;-72
2022/01/09 06:07:32;;;;;;;7.32;1.77;;;;;;;4.26;100.00;98898.75;5032767;28;19955;-72
2022/01/09 06:10:15;;;;;;;;;;;;;;;4.24;100.00;98903.31;5033030;28;20095;-72
2022/01/09 06:12:59;;;;;;;9.07;2.17;;;;;;;4.25;100.00;98907.66;5003554;28;19920;-73
2022/01/09 06:15:43;;;;;;;;;;;;;;;4.27;100.00;98919.69;5018297;28;20056;-73
2022/01/09 06:18:27;;;;;;;5.03;2.00;;;;;;;4.28;100.00;98931.09;5017442;28;19919;-72
2022/01/09 06:21:11;;;;;;;;;;;;;;;4.29;100.00;98932.75;5021222;28;20068;-73
2022/01/09 06:23:55;;;;;;;8.43;2.78;;;;;;;4.26;100.00;98943.59;5021489;28;19924;-72
2022/01/09 06:26:39;;;;;;;10.90;3.65;;;;;;;4.26;100.00;98940.97;5036481;28;20196;-71
2022/01/09 06:29:23;;;;;;;13.10;4.78;;;;;;;4.23;100.00;98952.59;5036205;28;20053;-72
2022/01/09 06:32:07;;;;;;;;;;;;;;;4.23;100.00;98955.25;5036401;28;20048;-72
2022/01/09 06:34:51;;;;;;;17.90;5.25;;;;;;;4.25;100.00;98966.50;5021390;28;19966;-73
2022/01/09 06:37:34;;;;;;;22.33;5.60;;;;;;;4.26;100.00;98980.53;5021082;28;20501;-72
2022/01/09 06:40:19;;;;;;;21.90;6.20;;;;;;;4.28;100.00;98992.59;5035948;28;20526;-72
2022/01/09 06:43:03;;;;;;;25.05;7.13;;;;;;;4.28;100.00;98999.69;5021766;28;20520;-72
2022/01/09 06:45:53;;;;;;;22.38;7.50;;;;;;;4.27;100.00;98998.84;5023591;28;20079;-72
2022/01/09 06:48:24;;;;;;;27.63;7.38;;;;;;;4.26;100.00;99017.44;5015553;22;20422;-74
2022/01/09 06:51:10;;;;;;;;;;;;;;;4.28;100.00;99010.22;4981975;28;20133;-72
2022/01/09 06:53:54;;;;;;;31.55;7.40;;;;;;;4.30;100.00;99029.38;4981952;28;20298;-72
2022/01/09 06:56:37;;;;;;;28.42;6.60;;;;;;;4.25;100.00;99026.34;4981795;28;20049;-73
2022/01/09 06:59:21;;;;;;;19.92;5.65;;;;;;;4.24;100.00;99035.19;4981665;28;20457;-73
2022/01/09 07:02:05;;;;;;;21.58;5.70;;;;;;;4.24;100.00;99040.47;4981548;28;20053;-73
2022/01/09 07:04:49;;;;;;;24.92;6.38;;;;;;;4.27;100.00;99048.94;4996314;28;20432;-73
2022/01/09 07:07:33;;;;;;;25.40;5.47;;;;;;;4.22;100.00;99047.69;4981609;28;20136;-70
2022/01/09 07:10:17;;;;;;;24.02;5.05;;;;;;;4.20;100.00;99065.44;4996226;28;20501;-73
2022/01/09 07:13:01;;;;;;;;;;;;;;;4.16;100.00;99056.97;4981903;28;20096;-73
2022/01/09 07:15:44;;;;;;;21.23;5.68;;;;;;;4.05;100.00;99072.88;4996000;28;20384;-73
2022/01/09 07:18:28;;;;;;;;;;;;;;;4.02;100.00;99080.22;4968055;28;20509;-70
2022/01/09 07:21:12;;;;;;;15.52;4.57;;;;;;;4.03;100.00;99066.91;4995733;28;20425;-72
2022/01/09 07:23:56;;;;;;;;;;;;;;;3.97;100.00;99090.34;4981807;28;20068;-72
2022/01/09 07:26:40;;;;;;;25.95;4.90;;;;;;;4.01;100.00;99092.59;4981356;28;19924;-73
2022/01/09 07:29:24;;;;;;;;;;;;;;;3.97;100.00;99101.72;4996363;28;20050;-72
2022/01/09 07:32:08;;;;;;;21.33;5.70;;;;;;;3.98;100.00;99107.81;4979694;28;19921;-72
2022/01/09 07:34:53;;;;;;;;;;;;;;;3.99;100.00;99109.50;4981350;28;20311;-72
2022/01/09 07:37:37;;;;;;;10.20;3.72;;;;;;;4.02;100.00;99125.91;4995124;28;20001;-73
2022/01/09 07:40:22;;;;;;;12.40;3.00;;;;;;;3.99;100.00;99138.50;4981033;28;20505;-69
2022/01/09 07:43:06;;;;;;;6.65;2.13;;;;;;;4.04;100.00;99138.97;4966968;28;20484;-73
2022/01/09 07:45:49;;;;;;;14.18;2.13;;;;;;;3.99;100.00;99138.50;4995620;28;20418;-72
2022/01/09 07:48:33;;;;;;;7.82;2.10;;;;;;;4.00;100.00;99137.53;4995284;28;20093;-73
2022/01/09 07:51:17;;;;;;;6.00;1.75;;;;;;;3.98;100.00;99150.00;4967043;28;20041;-72
2022/01/09 07:54:01;;;;;;;10.10;2.47;;;;;;;4.01;100.00;99149.75;4995467;28;20120;-72
2022/01/09 07:56:45;;;;;;;9.90;2.70;;;;;;;4.07;100.00;99143.97;4995090;28;20053;-72
2022/01/09 07:59:29;;;;;;;;;;;;;;;4.06;100.00;99144.94;4980692;28;20057;-69
2022/01/09 08:02:13;;;;;;;14.18;2.58;;;;;;;4.13;100.00;99153.97;4967044;28;19921;-71
2022/01/09 08:04:57;;;;;;;6.78;2.55;;;;;;;4.15;100.00;99149.44;4980253;28;20049;-73
2022/01/09 08:07:41;;;;;;;9.98;2.30;;;;;;;4.22;100.00;99161.09;4995175;28;20168;-72
2022/01/09 08:10:28;;;;;;;10.15;2.25;;;;;;;4.21;100.00;99172.63;4980333;28;20148;-71
2022/01/09 08:13:11;;;;;;;10.50;2.45;;;;;;;4.22;100.00;99164.59;4980275;28;20048;-73
2022/01/09 08:15:55;;;;;;;;;;;;;;;4.09;100.00;99173.66;4980377;28;20049;-72
2022/01/09 08:18:39;;;;;;;10.18;2.00;;;;;;;4.16;100.00;99169.56;4979984;28;20023;-72
2022/01/09 08:21:23;;;;;;;7.75;1.88;;;;;;;4.17;100.00;99161.50;4994854;28;20065;-73
2022/01/09 08:24:07;;;;;;;;;;;;;;;4.25;100.00;99166.13;4995237;28;20084;-71
2022/01/09 08:26:51;;;;;;;8.35;1.83;;;;;;;4.29;100.00;99171.00;4966100;28;19963;-73
2022/01/09 08:29:37;;;;;;;7.63;2.10;;;;;;;4.35;100.00;99161.75;4994706;28;20045;-73
2022/01/09 08:32:21;;;;;;;11.85;1.98;;;;;;;4.40;100.00;99167.44;4979935;28;20053;-73
2022/01/09 08:35:05;;;;;;;;;;;;;;;4.49;100.00;99161.38;4980281;28;20048;-72
2022/01/09 08:37:51;;;;;;;5.82;1.55;;;;;;;4.54;100.00;99167.06;4979637;28;19936;-72
2022/01/09 08:40:35;;;;;;;14.55;2.35;;;;;;;4.51;100.00;99175.28;4979921;28;20089;-72
2022/01/09 08:43:19;;;;;;;6.60;1.95;;;;;;;4.52;100.00;99176.94;4979160;28;20135;-71
2022/01/09 08:46:03;;;;;;;9.60;1.75;;;;;;;4.59;100.00;99180.72;4994421;28;20498;-72
2022/01/09 08:48:47;;;;;;;15.65;2.35;;;;;;;4.62;100.00;99183.09;4979778;28;20125;-69
2022/01/09 08:51:31;;;;;;;12.52;1.90;;;;;;;4.57;100.00;99191.41;4965995;28;20114;-73
2022/01/09 08:54:15;;;;;;;11.93;2.10;;;;;;;4.60;100.00;99190.31;4966024;28;20053;-73
2022/01/09 08:56:59;;;;;;;;;;;;;;;4.74;100.00;99200.50;4994774;28;20112;-72
2022/01/09 08:59:43;;;;;;;9.93;1.88;;;;;;;4.69;100.00;99200.88;4994149;28;19925;-73
2022/01/09 09:02:27;;;;;;;7.72;2.13;;;;;;;4.68;100.00;99206.31;4994443;28;20410;-71
2022/01/09 09:05:11;;;;;;;7.78;1.98;;;;;;;4.61;100.00;99202.53;4965567;28;20080;-71
2022/01/09 09:07:55;;;;;;;10.57;1.88;;;;;;;4.53;100.00;99205.00;4965606;28;20052;-73
2022/01/09 09:10:39;;;;;;;10.93;2.10;;;;;;;4.52;100.00;99214.72;4993857;28;20052;-70
2022/01/09 09:13:22;;;;;;;10.50;2.45;;;;;;;4.55;100.00;99214.47;4993916;28;20053;-72
2022/01/09 09:16:08;;;;;;;;;;;;;;;4.63;100.00;99217.28;4994210;28;20081;-72
2022/01/09 09:18:52;;;;;;;11.75;2.28;;;;;;;4.73;100.00;99233.16;4979688;28;19921;-71
2022/01/09 09:21:37;;;;;;;10.02;2.45;;;;;;;4.80;100.00;99226.38;4979766;28;20050;-73
2022/01/09 09:24:21;;;;;;;10.25;2.72;;;;;;;4.77;100.00;99251.22;4993787;28;20056;-72
2022/01/09 09:27:05;;;;;;;6.40;1.85;;;;;;;4.76;100.00;99248.75;4993635;28;20187;-74
2022/01/09 09:29:49;;;;;;;6.65;2.15;;;;;;;4.81;100.00;99250.00;4993491;28;20042;-74
2022/01/09 09:32:33;;;;;;;8.60;1.98;;;;;;;4.83;100.00;99239.31;4978757;28;20058;-72
2022/01/09 09:35:17;;;;;;;7.80;2.08;;;;;;;4.83;100.00;99249.88;4993756;28;20100;-74
2022/01/09 09:38:02;;;;;;;10.02;2.45;;;;;;;4.93;100.00;99256.03;4978622;28;20493;-73
2022/01/09 09:40:46;;;;;;;13.75;2.55;;;;;;;4.95;100.00;99261.03;4978704;28;20041;-73
2022/01/09 09:43:30;;;;;;;;;;;;;;;4.83;100.00;99257.78;4993955;28;20061;-74
2022/01/09 09:46:15;;;;;;;14.40;2.65;;;;;;;4.78;100.00;99257.34;4978536;28;19940;-74
2022/01/09 09:48:59;;;;;;;9.05;1.90;;;;;;;4.77;100.00;99261.78;4965245;28;20112;-71
2022/01/09 09:51:43;;;;;;;11.95;2.20;;;;;;;4.83;100.00;99268.34;4978904;28;20065;-73
2022/01/09 09:54:27;;;;;;;13.25;2.75;;;;;;;4.84;100.00;99267.38;4977795;28;20053;-73
2022/01/09 09:57:11;;;;;;;7.40;2.38;;;;;;;5.01;100.00;99273.72;4978462;28;20093;-73
2022/01/09 10:00:05;;;;;;;8.63;1.85;;;;;;;5.05;100.00;99277.75;4978633;28;20093;-73
2022/01/09 10:02:55;;;;;;;12.73;3.05;;;;;;;5.19;100.00;99274.75;4993546;28;20041;-72
2022/01/09 10:05:39;;;;;;;6.13;2.47;;;;;;;5.22;100.00;99274.47;4993340;28;20064;-73
2022/01/09 10:08:35;;;;;;;5.68;1.70;;;;;;;5.23;100.00;99273.50;4978624;28;20049;-73
2022/01/09 10:11:21;;;;;;;10.68;1.95;;;;;;;5.25;100.00;99283.94;4993433;28;20044;-70
2022/01/09 10:14:24;;;;;;;8.45;1.58;;;;;;;5.24;100.00;99283.09;4978939;28;20053;-68
2022/01/09 10:17:13;;;;;;;9.25;2.50;;;;;;;5.21;100.00;99283.38;4978193;28;20058;-72
2022/01/09 10:19:58;;;;;;;7.32;1.85;;;;;;;5.16;100.00;99284.75;4978340;28;20506;-73
2022/01/09 10:22:53;;;;;;;6.03;2.35;;;;;;;5.12;100.00;99304.50;4978673;28;20053;-68
2022/01/09 10:25:38;;;;;;;7.40;2.50;;;;;;;5.03;100.00;99292.91;4993324;28;20084;-70
2022/01/09 10:28:23;;;;;;;7.18;2.33;;;;;;;5.22;100.00;99287.69;4977942;28;20113;-69
2022/01/09 10:31:17;;;;;;;11.15;2.65;;;;;;;5.21;100.00;99291.28;4993052;28;20185;-69
2022/01/09 10:34:08;;;;;;;11.13;2.38;;;;;;;5.14;100.00;99298.06;4993209;28;20050;-69
2022/01/09 10:36:52;;;;;;;7.47;2.20;;;;;;;5.29;100.00;99302.03;4993245;28;20144;-69
2022/01/09 10:39:38;;;;;;;7.45;1.98;;;;;;;5.39;100.00;99313.47;4992894;28;20477;-70
2022/01/09 10:42:22;;;;;;;4.30;1.70;;;;;;;5.42;100.00;99313.19;4993171;28;20053;-70
2022/01/09 10:45:23;;;;;;;7.05;1.80;;;;;;;5.37;100.00;99315.41;4978138;28;20053;-70
2022/01/09 10:48:11;;;;;;;4.03;1.63;;;;;;;5.39;100.00;99317.91;4978268;28;20465;-70
2022/01/09 10:50:54;;;;;;;7.97;2.05;;;;;;;5.29;100.00;99323.19;4978428;28;20049;-69
2022/01/09 10:53:40;;;;;;;6.10;1.50;;;;;;;5.25;100.00;99319.13;4978187;28;20109;-70
2022/01/09 10:56:25;;;;;;;3.53;1.50;;;;;;;5.20;100.00;99302.84;4978068;28;20053;-70
2022/01/09 10:59:09;;;;;;;4.85;1.77;;;;;;;5.28;100.00;99321.50;4992974;28;20053;-70
2022/01/09 11:01:52;;;;;;;;;;;;;;;5.23;100.00;99328.97;4978436;28;20041;-69
2022/01/09 11:04:37;;;;;;;3.65;1.73;;;;;;;5.17;100.00;99323.41;4978082;28;20443;-71
2022/01/09 11:07:21;;;;;;;4.70;1.70;;;;;;;5.50;100.00;99321.28;4995944;28;20069;-70
2022/01/09 11:10:07;;;;;;;3.58;1.80;;;;;;;5.77;100.00;99329.41;4981287;28;20053;-71
2022/01/09 11:12:52;;;;;;;7.68;1.92;;;;;;;5.82;100.00;99321.94;4981660;28;20053;-68
2022/01/09 11:16:32;;;;;;;4.63;2.38;;;;;;;5.89;100.00;99322.22;4981662;28;20053;-66
2022/01/09 11:18:42;;;;;;;9.27;2.10;;;;;;;6.56;100.00;99308.00;4984293;28;20056;-68
2022/01/09 11:21:26;;;;;;;7.28;2.55;;;;;;;6.71;100.00;99316.31;4981195;28;20045;-67
2022/01/09 11:24:10;;;;;;;3.80;1.52;;;;;;;8.24;100.00;99307.44;4981092;28;20057;-70
2022/01/09 11:26:58;;;;;;;;;;;;;;;7.69;100.00;99311.16;4996270;28;20080;-66
2022/01/09 11:30:04;;;;;;;6.97;2.22;;;;;;;7.60;100.00;99315.53;4981336;28;19929;-68
2022/01/09 11:33:29;;;;;;;9.98;2.13;;;;;;;7.24;100.00;99320.03;4995958;28;20126;-70
2022/01/09 11:36:33;;;;;;;6.10;1.92;;;;;;;6.78;100.00;99314.78;4922097;29;20551;-68
2022/01/09 11:39:20;;;;;;;5.97;1.60;;;;;;;6.62;100.00;99314.53;4967521;28;20088;-70
2022/01/09 11:42:10;;;;;;;8.27;2.47;;;;;;;6.61;100.00;99312.84;4995601;28;20073;-70
2022/01/09 11:44:55;;;;;;;6.22;2.38;;;;;;;6.62;100.00;99306.59;4981168;28;20163;-69
2022/01/09 11:47:57;;;;;;;7.13;2.22;;;;;;;6.63;100.00;99306.44;4966950;28;20097;-68
2022/01/09 11:51:10;;;;;;;4.78;1.80;;;;;;;6.68;100.00;99306.84;4995595;28;20045;-69
2022/01/09 11:54:16;;;;;;;4.70;1.92;;;;;;;6.76;100.00;99314.91;4980585;28;20097;-65
2022/01/09 11:57:08;;;;;;;5.18;1.92;;;;;;;6.66;100.00;99316.75;4981080;28;20193;-69
2022/01/09 11:59:53;;;;;;;7.20;1.95;;;;;;;6.61;100.00;99318.16;4995402;28;20184;-69
2022/01/09 12:02:38;;;;;;;9.10;1.98;;;;;;;6.37;100.00;99318.59;4980532;28;20068;-69
2022/01/09 12:05:21;;;;;;;3.42;2.00;;;;;;;6.34;100.00;99324.19;4995394;28;20509;-69
2022/01/09 12:08:06;;;;;;;6.75;1.75;;;;;;;6.50;100.00;99328.91;4980305;28;20072;-69
2022/01/09 12:10:51;;;;;;;7.85;1.65;;;;;;;6.28;100.00;99319.44;4995212;28;20041;-69
2022/01/09 12:13:41;;;;;;;2.70;1.50;;;;;;;6.59;100.00;99328.06;4980277;28;20100;-69
2022/01/09 12:16:44;;;;;;;5.97;1.70;;;;;;;7.23;100.00;99323.69;4979917;28;20053;-69
2022/01/09 12:20:01;;;;;;;6.35;1.70;;;;;;;8.18;100.00;99318.63;4980092;28;20510;-68
2022/01/09 12:22:45;;;;;;;3.22;1.30;;;;;;;8.30;100.00;99320.94;4994717;28;20481;-68
2022/01/09 12:25:35;;;;;;;6.57;1.52;;;;;;;7.75;97.40;99315.88;4980363;28;20101;-69
2022/01/09 12:28:25;;;;;;;5.00;1.60;;;;;;;8.21;100.00;99308.59;4995800;28;20109;-69
2022/01/09 12:31:20;;;;;;;3.95;1.40;;;;;;;8.16;89.61;99316.13;4980941;28;20169;-66
2022/01/09 12:34:11;;;;;;;4.90;1.55;;;;;;;8.06;91.77;99314.53;4995163;28;20185;-69
2022/01/09 12:36:56;;;;;;;8.38;1.70;;;;;;;7.75;92.98;99321.19;4994814;28;20052;-69
2022/01/09 12:39:45;;;;;;;9.38;1.73;;;;;;;7.21;96.92;99321.19;4979885;28;20049;-69
2022/01/09 12:42:29;;;;;;;2.15;1.33;;;;;;;6.89;96.56;99307.47;4979830;28;20108;-69
2022/01/09 12:45:19;;;;;;;5.70;2.17;;;;;;;6.69;100.00;99308.50;4979722;28;20049;-69
2022/01/09 12:48:05;;;;;;;5.50;1.70;;;;;;;6.61;100.00;99316.34;4994067;28;20058;-69
2022/01/09 12:50:49;;;;;;;6.43;1.98;;;;;;;6.70;100.00;99320.81;4995731;28;20466;-69
2022/01/09 12:53:41;;;;;;;5.85;1.40;;;;;;;6.75;97.36;99313.25;4979784;28;20145;-69
2022/01/09 12:56:26;;;;;;;5.03;1.98;;;;;;;6.83;98.58;99316.03;4979232;28;20053;-69
2022/01/09 12:59:13;;;;;;;5.45;1.70;;;;;;;6.58;100.00;99313.16;4979332;28;20506;-69
2022/01/09 13:01:58;;;;;;;6.97;1.88;;;;;;;6.43;100.00;99311.91;4994175;28;20411;-68
2022/01/09 13:04:42;;;;;;;5.78;1.70;;;;;;;6.37;100.00;99313.31;4979464;28;20173;-69
2022/01/09 13:07:26;;;;;;;;;;;;;;;6.36;100.00;99327.50;4979915;28;20045;-69
2022/01/09 13:10:12;;;;;;;8.18;1.63;;;;;;;6.24;100.00;99328.66;4979324;28;19928;-69
2022/01/09 13:13:00;;;;;;;7.00;1.80;;;;;;;6.31;100.00;99323.63;4993895;28;20415;-68